createdAt,value
2019-05-23T00:05:08.504Z,11.90
2019-05-23T00:16:06.331Z,12.02
2019-05-23T00:27:10.155Z,12.19
2019-05-23T00:38:11.136Z,12.24
2019-05-23T00:49:12.215Z,12.13
2019-05-23T01:00:10.247Z,12.12
2019-05-23T01:11:13.468Z,12.23
2019-05-23T01:22:09.480Z,12.33
2019-05-23T01:33:12.021Z,12.33
2019-05-23T01:44:13.907Z,12.45
2019-05-23T01:55:10.353Z,12.42
2019-05-23T02:06:14.206Z,12.52
2019-05-23T02:17:15.489Z,12.60
2019-05-23T02:28:14.895Z,12.63
2019-05-23T02:39:17.732Z,12.61
2019-05-23T02:50:14.716Z,12.61
2019-05-23T03:01:14.496Z,12.71
2019-05-23T03:12:12.112Z,12.66
2019-05-23T03:23:11.420Z,12.69
2019-05-23T03:34:15.213Z,12.86
2019-05-23T03:45:15.724Z,13.06
2019-05-23T03:56:13.370Z,12.56
2019-05-23T04:07:13.116Z,12.44
2019-05-23T04:18:09.636Z,12.46
2019-05-23T04:29:09.051Z,12.46
2019-05-23T04:40:07.891Z,12.59
2019-05-23T04:51:08.313Z,12.63
2019-05-23T05:02:03.775Z,12.78
2019-05-23T05:13:04.228Z,12.96
2019-05-23T05:24:06.226Z,13.14
2019-05-23T05:35:10.286Z,13.27
2019-05-23T05:46:10.734Z,13.44
2019-05-23T05:57:11.132Z,13.24
2019-05-23T06:08:15.321Z,13.24
2019-05-23T06:19:14.345Z,13.27
2019-05-23T06:30:14.176Z,13.32
2019-05-23T06:41:18.258Z,13.58
2019-05-23T06:52:16.927Z,13.74
2019-05-23T07:03:17.501Z,14.20
2019-05-23T07:14:18.397Z,14.87
2019-05-23T07:25:16.388Z,15.02
2019-05-23T07:36:19.265Z,15.13
2019-05-23T07:47:19.835Z,15.20
2019-05-23T07:58:18.335Z,15.73
2019-05-23T08:09:15.506Z,16.60
2019-05-23T08:20:11.736Z,16.85
2019-05-23T08:31:07.135Z,17.63
2019-05-23T08:42:09.563Z,18.06
2019-05-23T08:53:06.628Z,18.11
2019-05-23T09:03:59.105Z,17.55
2019-05-23T09:14:58.331Z,17.77
2019-05-23T09:25:55.879Z,18.09
2019-05-23T09:36:54.477Z,18.43
2019-05-23T09:47:51.899Z,18.99
2019-05-23T09:58:51.718Z,19.57
2019-05-23T10:09:51.998Z,20.15
2019-05-23T10:20:54.356Z,20.57
2019-05-23T10:31:53.965Z,20.10
2019-05-23T10:42:54.803Z,19.95
2019-05-23T10:53:44.491Z,20.35
2019-05-23T11:04:47.345Z,20.76
2019-05-23T11:15:49.672Z,20.69
2019-05-23T11:26:50.186Z,21.29
2019-05-23T11:37:45.865Z,21.42
2019-05-23T11:48:41.321Z,21.84
2019-05-23T11:59:33.713Z,22.08
2019-05-23T12:10:33.414Z,23.42
2019-05-23T12:21:28.474Z,22.93
2019-05-23T12:32:20.962Z,21.97
2019-05-23T12:43:16.063Z,22.10
2019-05-23T12:54:13.572Z,22.31
2019-05-23T13:05:14.203Z,22.16
2019-05-23T13:16:18.065Z,21.82
2019-05-23T13:27:18.131Z,21.92
2019-05-23T13:38:15.952Z,21.89
2019-05-23T13:49:11.930Z,22.23
2019-05-23T14:00:07.615Z,22.63
2019-05-23T14:11:05.098Z,22.63
2019-05-23T14:22:08.965Z,24.26
2019-05-23T14:33:05.581Z,23.33
2019-05-23T14:43:59.824Z,22.60
2019-05-23T14:54:45.587Z,22.15
2019-05-23T15:05:27.367Z,21.60
2019-05-23T15:16:17.854Z,21.17
2019-05-23T15:27:10.613Z,20.80
2019-05-23T15:38:08.543Z,20.53
2019-05-23T15:49:01.756Z,20.16
2019-05-23T15:59:59.781Z,20.09
2019-05-23T16:10:55.960Z,19.57
2019-05-23T16:21:48.686Z,19.31
2019-05-23T16:32:48.746Z,19.06
2019-05-23T16:43:40.184Z,18.77
2019-05-23T16:54:38.223Z,18.69
2019-05-23T17:05:39.466Z,18.69
2019-05-23T17:16:35.994Z,18.44
2019-05-23T17:27:38.276Z,18.65
2019-05-23T17:38:39.915Z,18.19
2019-05-23T17:49:37.835Z,18.29
2019-05-23T18:00:34.472Z,17.98
2019-05-23T18:11:29.818Z,18.35
2019-05-23T18:22:26.282Z,17.88
2019-05-23T18:33:21.426Z,17.53
2019-05-23T18:44:14.591Z,17.60
2019-05-23T18:55:05.339Z,17.46
2019-05-23T19:06:05.146Z,17.35
2019-05-23T19:16:57.511Z,17.17
2019-05-23T19:27:55.850Z,17.11
2019-05-23T19:38:54.201Z,16.44
2019-05-23T19:49:54.383Z,16.35
2019-05-23T20:00:56.196Z,16.03
2019-05-23T20:11:54.231Z,15.83
2019-05-23T20:22:46.221Z,15.63
2019-05-23T20:33:41.462Z,15.49
2019-05-23T20:44:40.098Z,15.30
2019-05-23T20:55:35.857Z,15.15
2019-05-23T21:06:15.151Z,15.15
2019-05-23T21:17:13.217Z,15.10
2019-05-23T21:28:09.615Z,14.93
2019-05-23T21:39:06.487Z,14.60
2019-05-23T21:50:04.011Z,14.52
2019-05-23T22:01:04.628Z,14.24
2019-05-23T22:12:01.483Z,14.31
2019-05-23T22:22:59.699Z,14.02
2019-05-23T22:34:03.040Z,14.10
2019-05-23T22:44:55.815Z,13.96
2019-05-23T22:55:53.709Z,13.70
2019-05-23T23:06:44.125Z,13.83
2019-05-23T23:17:45.091Z,13.78
2019-05-23T23:28:44.625Z,13.66
2019-05-23T23:39:48.757Z,13.77
2019-05-23T23:50:43.064Z,13.68
